Time;durP1;ratioP1;P1;durP2;ratioP2;P2;SDS_P1;SDS_P2;PMS_P1;PMS_P2;Temp;Humidity;BMP_temperature;BMP_pressure;BME280_temperature;BME280_humidity;BME280_pressure;Samples;Min_cycle;Max_cycle;Signal;HPM_P1;HPM_P2
2021/05/27 00:01:49;;;;;;;8.10;6.00;;;17.80;95.90;;;;;;4926472;29;20058;-88
2021/05/27 00:04:15;;;;;;;6.35;5.75;;;17.70;96.00;;;;;;4958526;29;20118;-88
2021/05/27 00:06:40;;;;;;;7.32;6.13;;;17.70;96.00;;;;;;4958249;29;20110;-88
2021/05/27 00:09:06;;;;;;;8.35;5.93;;;17.70;96.00;;;;;;4941006;29;20034;-88
2021/05/27 00:11:34;;;;;;;7.65;5.72;;;17.60;96.00;;;;;;4958619;29;20490;-88
2021/05/27 00:14:03;;;;;;;7.05;5.78;;;17.60;96.00;;;;;;4940890;29;20051;-88
2021/05/27 00:16:31;;;;;;;6.82;6.10;;;17.60;95.90;;;;;;4940988;29;20031;-87
2021/05/27 00:19:11;;;;;;;6.85;5.70;;;17.60;96.00;;;;;;4958388;29;20483;-88
2021/05/27 00:21:37;;;;;;;7.28;5.75;;;17.50;96.00;;;;;;4940717;29;20027;-88
2021/05/27 00:24:04;;;;;;;5.80;5.15;;;17.50;96.00;;;;;;4940969;29;20019;-88
2021/05/27 00:26:32;;;;;;;6.15;5.43;;;17.50;96.00;;;;;;4940704;29;20027;-88
2021/05/27 00:29:00;;;;;;;6.45;5.50;;;17.50;96.00;;;;;;4940843;29;20382;-88
2021/05/27 00:31:28;;;;;;;7.63;5.93;;;17.40;95.90;;;;;;4956644;29;20114;-88
2021/05/27 00:33:56;;;;;;;5.85;5.35;;;17.40;96.00;;;;;;4957873;29;20038;-87
2021/05/27 00:36:31;;;;;;;6.45;5.55;;;17.40;96.00;;;;;;4957825;29;20083;-87
2021/05/27 00:39:04;;;;;;;5.80;5.30;;;17.30;95.90;;;;;;4957616;29;20099;-88
2021/05/27 00:41:33;;;;;;;5.80;5.05;;;17.20;96.00;;;;;;4957869;29;20033;-87
2021/05/27 00:43:59;;;;;;;6.20;5.60;;;17.20;96.10;;;;;;4957604;29;20027;-88
2021/05/27 00:46:51;;;;;;;6.68;5.82;;;17.20;96.20;;;;;;4955977;28;20078;-87
2021/05/27 00:49:42;;;;;;;7.38;6.65;;;17.20;96.20;;;;;;4957756;29;20151;-87
2021/05/27 00:52:25;;;;;;;7.18;6.13;;;17.10;96.10;;;;;;4957304;29;20078;-87
2021/05/27 00:55:02;;;;;;;7.93;7.13;;;17.00;96.10;;;;;;4956303;29;20035;-88
2021/05/27 00:57:37;;;;;;;8.55;7.65;;;17.10;96.20;;;;;;4956060;28;20034;-88
2021/05/27 01:00:13;;;;;;;8.90;7.70;;;17.00;96.20;;;;;;4957565;29;20030;-88
2021/05/27 01:02:47;;;;;;;8.18;7.38;;;17.00;96.30;;;;;;4957406;29;20110;-87
2021/05/27 01:05:15;;;;;;;9.57;7.55;;;16.90;96.20;;;;;;4956225;29;20031;-87
2021/05/27 01:07:47;;;;;;;8.48;7.57;;;17.00;96.30;;;;;;4955907;29;20035;-88
2021/05/27 01:10:18;;;;;;;8.80;7.47;;;16.90;96.30;;;;;;4957198;29;20534;-87
2021/05/27 01:12:47;;;;;;;11.35;7.43;;;16.90;96.20;;;;;;4955661;29;20477;-87
2021/05/27 01:15:30;;;;;;;8.27;7.38;;;16.90;96.30;;;;;;4939477;29;20033;-88
2021/05/27 01:17:57;;;;;;;10.15;7.28;;;16.90;96.30;;;;;;4955482;29;20027;-88
2021/05/27 01:20:46;;;;;;;7.85;7.03;;;16.90;96.20;;;;;;4956949;29;20023;-87
2021/05/27 01:23:18;;;;;;;6.80;6.10;;;16.80;96.30;;;;;;4956761;29;20034;-87
2021/05/27 01:25:57;;;;;;;7.80;6.47;;;16.90;96.30;;;;;;4955280;28;20066;-87
2021/05/27 01:28:28;;;;;;;7.15;6.45;;;16.90;96.40;;;;;;4955624;29;20027;-87
2021/05/27 01:30:54;;;;;;;;;;;16.80;96.40;;;;;;4956047;29;20034;-88
2021/05/27 01:33:28;;;;;;;5.95;5.35;;;16.80;96.50;;;;;;4955508;29;20374;-87
2021/05/27 01:35:56;;;;;;;6.93;6.20;;;16.90;96.40;;;;;;4955418;29;20041;-87
2021/05/27 01:38:30;;;;;;;6.63;5.75;;;16.90;96.40;;;;;;4955392;29;20466;-87
2021/05/27 01:41:01;;;;;;;6.70;6.00;;;16.90;96.40;;;;;;4956481;29;20023;-88
2021/05/27 01:43:35;;;;;;;6.32;5.72;;;16.90;96.50;;;;;;4939503;29;20102;-87
2021/05/27 01:46:01;;;;;;;7.07;5.68;;;16.90;96.40;;;;;;4955336;29;20024;-88
2021/05/27 01:48:27;;;;;;;7.20;5.82;;;16.90;96.50;;;;;;4955264;29;20031;-88
2021/05/27 01:50:55;;;;;;;7.82;5.85;;;16.90;96.50;;;;;;4954862;29;20363;-88
2021/05/27 01:53:21;;;;;;;7.97;5.68;;;17.00;96.50;;;;;;4955081;29;20031;-88
2021/05/27 01:55:57;;;;;;;9.02;5.95;;;17.00;96.50;;;;;;4954647;29;20205;-88
2021/05/27 01:58:27;;;;;;;6.00;5.38;;;17.00;96.40;;;;;;4954650;28;20358;-88
2021/05/27 02:01:25;;;;;;;10.43;6.05;;;17.00;96.40;;;;;;4956256;29;20102;-87
2021/05/27 02:03:56;;;;;;;6.65;5.35;;;17.00;96.50;;;;;;4955655;29;20027;-88
2021/05/27 02:06:25;;;;;;;6.93;5.32;;;17.00;96.40;;;;;;4939982;29;20461;-88
2021/05/27 02:09:17;;;;;;;;;;;;;;;;;;;;;
2021/05/27 02:11:48;;;;;;;6.50;5.90;;;16.90;96.40;;;;;;4955967;29;20147;-88
2021/05/27 02:14:22;;;;;;;6.72;6.00;;;16.90;96.40;;;;;;4954948;29;22022;-88
2021/05/27 02:16:47;;;;;;;5.80;5.30;;;16.90;96.40;;;;;;4955359;29;20027;-88
2021/05/27 02:19:13;;;;;;;7.93;5.82;;;16.90;96.50;;;;;;4955174;29;20114;-88
2021/05/27 02:21:42;;;;;;;11.88;6.35;;;16.90;96.60;;;;;;4955225;29;20038;-88
2021/05/27 02:24:13;;;;;;;6.38;5.68;;;17.00;96.60;;;;;;4955122;29;20455;-88
2021/05/27 02:26:38;;;;;;;;;;;17.00;96.60;;;;;;4955046;28;20389;-88
2021/05/27 02:29:07;;;;;;;5.93;5.25;;;17.00;96.50;;;;;;4956100;29;19910;-88
2021/05/27 02:31:34;;;;;;;6.75;5.90;;;17.00;96.70;;;;;;4954990;29;20050;-88
2021/05/27 02:34:03;;;;;;;7.07;6.22;;;17.10;96.70;;;;;;4956214;29;20024;-88
2021/05/27 02:36:29;;;;;;;6.38;5.63;;;17.10;96.70;;;;;;4955045;29;20029;-88
2021/05/27 02:38:56;;;;;;;6.57;5.93;;;17.10;96.80;;;;;;4956242;29;20043;-88
2021/05/27 02:41:22;;;;;;;8.10;6.72;;;17.10;96.90;;;;;;4955045;29;20024;-88
2021/05/27 02:43:53;;;;;;;8.70;6.38;;;17.20;96.90;;;;;;4954807;29;20421;-88
2021/05/27 02:46:19;;;;;;;7.15;6.15;;;17.20;96.80;;;;;;4956086;29;20033;-88
2021/05/27 02:48:47;;;;;;;9.02;6.50;;;17.20;96.90;;;;;;4954948;29;20031;-88
2021/05/27 02:51:13;;;;;;;8.80;7.10;;;17.30;96.90;;;;;;4939069;29;20378;-88
2021/05/27 02:53:46;;;;;;;9.60;7.38;;;17.30;96.90;;;;;;4954843;29;20031;-88
2021/05/27 02:56:12;;;;;;;10.30;8.48;;;17.30;96.80;;;;;;4955876;29;20039;-88
2021/05/27 02:58:39;;;;;;;9.98;7.93;;;17.40;96.90;;;;;;4956129;29;20482;-88
2021/05/27 03:01:05;;;;;;;10.27;8.05;;;17.40;96.80;;;;;;4954634;29;20028;-88
2021/05/27 03:03:31;;;;;;;11.30;7.35;;;17.50;96.80;;;;;;4956149;29;20365;-88
2021/05/27 03:05:58;;;;;;;10.02;7.68;;;17.40;96.80;;;;;;4955026;29;20031;-88
2021/05/27 03:08:27;;;;;;;10.75;7.70;;;17.40;96.80;;;;;;4955884;29;20023;-87
2021/05/27 03:11:01;;;;;;;9.27;7.80;;;17.40;96.90;;;;;;4940554;29;20054;-87
2021/05/27 03:13:27;;;;;;;9.15;7.35;;;17.40;96.80;;;;;;4935055;29;20422;-88
2021/05/27 03:15:55;;;;;;;9.30;7.95;;;17.40;96.90;;;;;;4940209;29;20023;-88
2021/05/27 03:18:21;;;;;;;8.35;7.22;;;17.40;97.00;;;;;;4939284;29;20390;-88
2021/05/27 03:20:47;;;;;;;8.00;7.20;;;17.40;97.00;;;;;;4939139;29;20023;-88
2021/05/27 03:23:14;;;;;;;9.80;7.20;;;17.50;96.90;;;;;;4940700;29;20378;-88
2021/05/27 03:25:41;;;;;;;8.57;7.30;;;17.50;97.00;;;;;;4939566;29;20038;-87
2021/05/27 03:28:07;;;;;;;7.72;6.57;;;17.50;97.00;;;;;;4939002;29;20028;-88
2021/05/27 03:31:02;;;;;;;7.53;6.63;;;17.50;97.00;;;;;;4939206;29;20036;-90
2021/05/27 03:33:31;;;;;;;9.45;7.10;;;17.40;97.00;;;;;;4923287;29;20437;-90
2021/05/27 03:35:56;;;;;;;8.73;6.78;;;17.40;97.10;;;;;;4939226;29;20031;-90
2021/05/27 03:38:24;;;;;;;9.77;7.35;;;17.50;97.10;;;;;;4939166;29;20023;-90
2021/05/27 03:40:50;;;;;;;10.57;7.60;;;17.50;97.20;;;;;;4939401;29;20028;-90
2021/05/27 03:43:16;;;;;;;10.10;8.30;;;17.50;97.20;;;;;;4939216;29;20478;-90
2021/05/27 03:45:42;;;;;;;10.77;8.45;;;17.50;97.20;;;;;;4939668;29;20123;-90
2021/05/27 03:48:09;;;;;;;10.23;8.45;;;17.50;97.20;;;;;;4940219;29;20056;-90
2021/05/27 03:50:35;;;;;;;12.85;8.93;;;17.50;97.30;;;;;;4938953;29;20028;-91
2021/05/27 03:53:06;;;;;;;13.57;9.20;;;17.50;97.30;;;;;;4939937;29;20055;-92
2021/05/27 03:55:33;;;;;;;12.05;9.93;;;17.60;97.40;;;;;;4940054;29;20384;-91
2021/05/27 03:58:01;;;;;;;11.63;9.30;;;17.60;97.40;;;;;;4907271;29;20115;-92
2021/05/27 04:00:47;;;;;;;13.43;9.93;;;17.60;97.40;;;;;;4939715;29;20059;-91
2021/05/27 04:03:14;;;;;;;17.70;10.93;;;17.70;97.50;;;;;;4909497;29;20028;-91
2021/05/27 04:08:25;;;;;;;12.10;10.85;;;17.70;97.40;;;;;;4920551;29;20068;-90
2021/05/27 04:10:50;;;;;;;14.73;11.70;;;17.60;97.50;;;;;;4922939;29;20036;-91
2021/05/27 04:13:19;;;;;;;13.02;10.93;;;17.70;97.50;;;;;;4925592;29;20080;-91
2021/05/27 04:15:52;;;;;;;14.18;11.15;;;17.70;97.60;;;;;;4907460;29;20070;-92
2021/05/27 04:18:37;;;;;;;;;;;;;;;;;;;;;
2021/05/27 04:21:05;;;;;;;10.38;8.60;;;17.70;97.60;;;;;;4939718;29;20016;-91
2021/05/27 04:23:36;;;;;;;13.35;10.38;;;17.70;97.60;;;;;;4938321;29;20430;-92
2021/05/27 04:26:06;;;;;;;11.43;9.68;;;17.80;97.60;;;;;;4950622;28;20053;-92
2021/05/27 04:28:34;;;;;;;12.27;9.40;;;17.80;97.70;;;;;;4958653;29;20470;-92
2021/05/27 04:31:12;;;;;;;11.73;8.80;;;17.80;97.70;;;;;;4941505;29;20031;-90
2021/05/27 04:33:45;;;;;;;13.27;7.93;;;17.80;97.70;;;;;;4941492;29;20087;-92
2021/05/27 04:36:21;;;;;;;9.23;7.60;;;17.80;97.70;;;;;;4941504;29;20050;-92
2021/05/27 04:38:49;;;;;;;6.32;5.72;;;17.90;97.80;;;;;;4958214;29;20028;-90
2021/05/27 04:41:25;;;;;;;6.78;5.57;;;17.90;97.80;;;;;;4925295;29;20095;-90
2021/05/27 04:43:54;;;;;;;6.70;5.90;;;18.00;97.70;;;;;;4924363;29;20110;-89
2021/05/27 04:46:23;;;;;;;7.30;5.75;;;18.00;97.70;;;;;;4924556;29;20035;-90
2021/05/27 04:48:48;;;;;;;7.03;5.28;;;18.10;97.70;;;;;;4957582;29;20082;-94
2021/05/27 04:51:15;;;;;;;5.32;4.82;;;18.20;97.70;;;;;;4958158;29;20443;-95
2021/05/27 04:53:41;;;;;;;5.50;4.38;;;18.20;97.60;;;;;;4958311;29;20505;-94
2021/05/27 04:56:14;;;;;;;7.13;5.40;;;18.30;97.50;;;;;;4941334;29;20027;-95
2021/05/27 04:58:42;;;;;;;7.15;6.05;;;18.40;97.30;;;;;;4941138;29;20359;-87
2021/05/27 05:01:11;;;;;;;9.07;6.28;;;18.50;97.10;;;;;;4941175;29;20027;-95
2021/05/27 05:03:37;;;;;;;7.40;6.10;;;18.50;96.80;;;;;;4941046;29;20023;-95
2021/05/27 05:06:02;;;;;;;9.93;6.88;;;18.70;96.70;;;;;;4940863;29;20086;-85
2021/05/27 05:08:28;;;;;;;12.77;9.10;;;18.70;96.50;;;;;;4957227;29;20031;-94
2021/05/27 05:11:00;;;;;;;12.85;8.20;;;18.70;96.30;;;;;;4957061;29;20481;-91
2021/05/27 05:13:30;;;;;;;11.68;9.70;;;18.80;96.30;;;;;;4940654;29;20055;-96
2021/05/27 05:15:56;;;;;;;13.50;11.48;;;18.90;96.30;;;;;;4958918;29;20031;-93
2021/05/27 05:18:22;;;;;;;15.23;10.98;;;19.00;96.20;;;;;;4940195;29;20023;-94
2021/05/27 05:20:52;;;;;;;15.48;12.88;;;19.00;96.20;;;;;;4941336;29;20467;-85
2021/05/27 05:23:18;;;;;;;;;;;19.10;96.10;;;;;;4957414;29;20458;-80
2021/05/27 05:25:44;;;;;;;18.10;12.93;;;19.10;95.80;;;;;;4956007;29;19914;-83
2021/05/27 05:28:13;;;;;;;19.55;13.90;;;19.20;95.90;;;;;;4939296;29;20039;-80
2021/05/27 05:30:45;;;;;;;28.88;19.20;;;19.20;95.70;;;;;;4939987;29;20441;-85
2021/05/27 05:33:13;;;;;;;25.27;18.40;;;19.20;95.50;;;;;;4938500;29;20453;-84
2021/05/27 05:35:53;;;;;;;;;;;;;;;;;;;;;
2021/05/27 05:38:21;;;;;;;25.67;20.15;;;19.30;95.50;;;;;;4941542;29;20023;-86
2021/05/27 05:40:46;;;;;;;33.47;21.77;;;19.40;95.40;;;;;;4939158;29;20028;-87
2021/05/27 05:43:12;;;;;;;31.70;21.15;;;19.40;95.20;;;;;;4956147;29;20106;-85
2021/05/27 05:45:38;;;;;;;28.95;19.75;;;19.50;95.30;;;;;;4956415;29;20027;-88
2021/05/27 05:48:04;;;;;;;41.13;25.10;;;19.50;95.10;;;;;;4956320;29;20076;-85
2021/05/27 05:50:46;;;;;;;46.10;26.05;;;19.60;94.90;;;;;;4938884;29;20046;-85
2021/05/27 05:53:23;;;;;;;45.25;26.00;;;19.60;94.80;;;;;;4955634;29;20027;-84
2021/05/27 05:55:53;;;;;;;50.05;30.48;;;19.70;94.80;;;;;;4938393;29;20035;-86
2021/05/27 05:58:19;;;;;;;61.17;35.95;;;19.70;94.80;;;;;;4923692;29;20061;-80
2021/05/27 06:00:47;;;;;;;65.40;35.00;;;19.80;94.80;;;;;;4957960;29;20385;-87
2021/05/27 06:03:14;;;;;;;52.45;29.60;;;19.90;94.60;;;;;;4955758;29;20058;-94
2021/05/27 06:05:48;;;;;;;43.35;26.45;;;19.90;94.60;;;;;;4955539;29;20028;-95
2021/05/27 06:08:24;;;;;;;33.17;19.83;;;20.00;94.40;;;;;;4955523;29;20058;-92
2021/05/27 06:10:54;;;;;;;39.47;22.88;;;20.00;94.40;;;;;;4924946;29;20473;-87
2021/05/27 06:13:25;;;;;;;40.42;21.23;;;20.10;94.30;;;;;;4939980;29;20079;-90
2021/05/27 06:15:53;;;;;;;41.50;21.02;;;20.20;94.30;;;;;;4954083;29;20627;-84
2021/05/27 06:18:19;;;;;;;46.40;22.52;;;20.20;94.10;;;;;;4956105;29;20028;-89
2021/05/27 06:20:49;;;;;;;40.97;21.83;;;20.30;94.10;;;;;;4922866;29;20027;-83
2021/05/27 06:23:15;;;;;;;35.20;19.42;;;20.30;93.90;;;;;;4955592;29;20019;-80
2021/05/27 06:25:53;;;;;;;30.60;15.88;;;20.40;93.80;;;;;;4955543;28;20023;-88
2021/05/27 06:28:36;;;;;;;;;;;;;;;;;;;;;
2021/05/27 06:31:19;;;;;;;31.90;16.33;;;20.40;93.80;;;;;;4955162;29;20363;-77
2021/05/27 06:33:52;;;;;;;22.08;14.25;;;20.50;93.40;;;;;;4955892;29;20038;-76
2021/05/27 06:36:26;;;;;;;25.45;13.13;;;20.50;93.30;;;;;;4938536;29;20050;-76
2021/05/27 06:38:54;;;;;;;22.23;13.27;;;20.60;93.10;;;;;;4938957;29;20027;-78
2021/05/27 06:41:33;;;;;;;27.02;15.80;;;20.70;93.10;;;;;;4955279;29;20023;-78
2021/05/27 06:43:58;;;;;;;20.80;14.00;;;20.70;93.10;;;;;;4955301;28;20046;-88
2021/05/27 06:46:29;;;;;;;19.80;12.48;;;20.80;93.20;;;;;;4937383;29;20817;-79
2021/05/27 06:49:05;;;;;;;27.70;16.77;;;20.80;93.20;;;;;;4955081;29;20473;-81
2021/05/27 06:51:40;;;;;;;23.80;15.23;;;20.90;93.10;;;;;;4954981;29;20830;-76
2021/05/27 06:54:06;;;;;;;19.00;12.23;;;20.90;93.10;;;;;;4954596;29;20066;-77
2021/05/27 06:56:34;;;;;;;17.85;11.80;;;20.90;93.10;;;;;;4955034;29;20070;-76
2021/05/27 06:59:05;;;;;;;17.38;11.15;;;21.00;93.10;;;;;;4937475;29;20031;-77
2021/05/27 07:01:31;;;;;;;12.98;9.80;;;21.00;93.00;;;;;;4938364;29;20027;-77
2021/05/27 07:04:02;;;;;;;16.08;10.63;;;21.10;93.10;;;;;;4937904;29;20501;-77
2021/05/27 07:06:27;;;;;;;28.27;16.35;;;21.20;93.00;;;;;;4955057;29;20062;-87
2021/05/27 07:09:00;;;;;;;21.15;13.52;;;21.20;93.10;;;;;;4953987;29;20059;-94
2021/05/27 07:11:29;;;;;;;16.75;9.88;;;21.20;93.20;;;;;;4937868;29;20031;-77
2021/05/27 07:13:54;;;;;;;14.63;9.60;;;21.20;93.10;;;;;;4954849;29;20059;-83
2021/05/27 07:16:20;;;;;;;11.68;8.15;;;21.30;93.10;;;;;;4953300;29;20431;-78
2021/05/27 07:18:51;;;;;;;8.07;7.28;;;21.40;92.80;;;;;;4953253;29;20129;-82
2021/05/27 07:21:17;;;;;;;8.45;7.15;;;21.40;92.90;;;;;;4937314;29;20027;-76
2021/05/27 07:23:43;;;;;;;7.53;5.57;;;21.40;92.90;;;;;;4953359;29;20488;-81
2021/05/27 07:26:08;;;;;;;7.68;5.05;;;21.40;92.80;;;;;;4951504;29;20570;-75
2021/05/27 07:28:36;;;;;;;5.75;5.00;;;21.50;92.80;;;;;;4954252;29;20045;-77
2021/05/27 07:31:07;;;;;;;5.10;4.40;;;21.50;92.80;;;;;;4954377;29;20031;-76
2021/05/27 07:33:36;;;;;;;5.07;4.10;;;21.60;92.60;;;;;;4954599;29;20043;-76
2021/05/27 07:36:17;;;;;;;;;;;;;;;;;;;;;
2021/05/27 07:38:43;;;;;;;8.00;4.10;;;21.70;92.50;;;;;;4938819;29;20030;-77
2021/05/27 07:41:09;;;;;;;4.25;3.85;;;21.70;92.20;;;;;;4954099;29;20114;-77
2021/05/27 07:43:35;;;;;;;5.57;4.65;;;21.70;92.40;;;;;;4922036;29;20028;-82
2021/05/27 07:46:01;;;;;;;5.25;4.05;;;21.80;92.50;;;;;;4954624;29;20471;-78
2021/05/27 07:48:27;;;;;;;4.50;4.00;;;21.80;92.40;;;;;;4953965;29;20055;-79
2021/05/27 07:50:53;;;;;;;3.88;3.50;;;21.90;92.40;;;;;;4954679;29;20418;-77
2021/05/27 07:53:20;;;;;;;6.28;4.00;;;21.90;92.10;;;;;;4954492;29;20027;-77
2021/05/27 07:55:47;;;;;;;5.57;4.40;;;21.90;92.00;;;;;;4953463;28;20082;-80
2021/05/27 07:58:18;;;;;;;6.07;4.30;;;21.90;91.90;;;;;;4955561;29;20086;-76
2021/05/27 08:00:46;;;;;;;5.43;3.55;;;22.00;91.70;;;;;;4957917;29;20029;-89
2021/05/27 08:03:11;;;;;;;4.03;3.60;;;22.00;91.70;;;;;;4957970;29;20102;-81
2021/05/27 08:05:39;;;;;;;3.88;3.58;;;22.10;91.70;;;;;;4957600;29;20118;-85
2021/05/27 08:08:05;;;;;;;9.65;4.55;;;22.20;91.60;;;;;;4955768;29;20027;-78
2021/05/27 08:10:31;;;;;;;4.40;4.00;;;22.30;90.90;;;;;;4956774;29;20028;-76
2021/05/27 08:12:59;;;;;;;4.72;4.18;;;22.30;91.20;;;;;;4956620;28;20027;-79
2021/05/27 08:15:29;;;;;;;5.30;3.83;;;22.30;91.20;;;;;;4957415;28;20044;-88
2021/05/27 08:18:15;;;;;;;5.10;3.65;;;22.40;91.20;;;;;;4956220;28;20399;-81
2021/05/27 08:20:43;;;;;;;4.30;3.83;;;22.40;91.40;;;;;;4956638;29;20063;-84
2021/05/27 08:23:12;;;;;;;4.63;4.15;;;22.40;91.60;;;;;;4956234;29;20445;-79
2021/05/27 08:25:38;;;;;;;4.35;3.90;;;22.50;91.40;;;;;;4957571;28;20035;-78
2021/05/27 08:28:07;;;;;;;4.40;4.00;;;22.60;91.30;;;;;;4956384;29;20094;-80
2021/05/27 08:30:33;;;;;;;4.60;3.97;;;22.70;90.90;;;;;;4957696;29;20027;-78
2021/05/27 08:32:58;;;;;;;4.38;3.85;;;22.80;90.60;;;;;;4956343;29;20477;-76
2021/05/27 08:35:24;;;;;;;8.00;5.55;;;22.90;90.60;;;;;;4957108;29;20043;-85
2021/05/27 08:37:52;;;;;;;9.82;6.88;;;22.90;91.00;;;;;;4956346;29;20028;-90
2021/05/27 08:40:25;;;;;;;7.32;5.95;;;22.90;91.30;;;;;;4957211;29;20035;-92
2021/05/27 08:42:59;;;;;;;8.65;7.25;;;22.90;91.40;;;;;;4957992;29;20027;-82
2021/05/27 08:45:37;;;;;;;7.47;6.78;;;22.90;91.60;;;;;;4957861;29;20031;-89
2021/05/27 08:48:06;;;;;;;8.93;7.53;;;23.00;91.60;;;;;;4956795;29;20028;-90
2021/05/27 08:50:45;;;;;;;;;;;;;;;;;;;;;
2021/05/27 08:53:22;;;;;;;;;;;;;;;;;;;;;
2021/05/27 08:55:48;;;;;;;10.57;8.45;;;22.90;91.50;;;;;;4938502;29;20036;-91
2021/05/27 08:58:21;;;;;;;8.95;8.05;;;22.90;91.30;;;;;;4938711;29;20438;-92
2021/05/27 09:01:04;;;;;;;9.43;8.05;;;23.00;91.30;;;;;;4938554;29;20020;-93
2021/05/27 09:03:48;;;;;;;12.35;8.00;;;23.00;91.30;;;;;;4938278;29;20522;-93
2021/05/27 09:06:35;;;;;;;9.13;8.20;;;23.10;91.20;;;;;;4921495;29;20434;-92
2021/05/27 09:09:06;;;;;;;8.50;6.90;;;23.10;91.30;;;;;;4937274;29;20028;-87
2021/05/27 09:11:37;;;;;;;7.50;6.72;;;23.20;91.10;;;;;;4921345;29;20092;-91
2021/05/27 09:14:05;;;;;;;8.15;6.75;;;23.30;91.10;;;;;;4920794;29;20052;-85
2021/05/27 09:16:30;;;;;;;9.88;7.05;;;23.40;90.90;;;;;;4937992;29;20095;-79
2021/05/27 09:19:27;;;;;;;8.43;6.68;;;23.50;90.80;;;;;;4938042;29;20462;-88
2021/05/27 09:21:53;;;;;;;6.78;5.80;;;23.50;90.30;;;;;;4952636;29;20497;-92
2021/05/27 09:24:47;;;;;;;5.97;5.38;;;23.60;90.90;;;;;;4930467;29;20035;-88
2021/05/27 09:27:51;;;;;;;;;;;;;;;;;;;;;
2021/05/27 09:30:18;;;;;;;5.57;5.07;;;23.70;90.70;;;;;;4956424;29;20446;-74
2021/05/27 09:32:56;;;;;;;5.30;4.30;;;23.80;90.50;;;;;;4956557;29;20528;-75
2021/05/27 09:35:28;;;;;;;9.20;4.03;;;23.90;90.20;;;;;;4938831;29;20033;-78
2021/05/27 09:37:58;;;;;;;4.70;4.10;;;24.00;90.10;;;;;;4955245;29;20024;-87
2021/05/27 09:40:34;;;;;;;4.20;3.80;;;24.00;90.00;;;;;;4954680;29;20027;-85
2021/05/27 09:43:20;;;;;;;;;;;;;;;;;;;;;
2021/05/27 09:46:04;;;;;;;5.18;3.85;;;24.10;89.70;;;;;;4956191;29;20384;-76
2021/05/27 09:48:36;;;;;;;3.92;3.63;;;24.10;89.50;;;;;;4955665;29;20038;-84
2021/05/27 09:51:08;;;;;;;9.90;4.28;;;24.10;89.60;;;;;;4955058;29;20114;-81
2021/05/27 09:53:44;;;;;;;11.07;4.53;;;24.10;89.50;;;;;;4938526;29;20031;-88
2021/05/27 09:56:38;;;;;;;4.72;4.25;;;24.10;89.90;;;;;;4938726;29;20053;-89
2021/05/27 09:59:13;;;;;;;4.93;3.88;;;24.10;89.50;;;;;;4956128;29;20030;-83
2021/05/27 10:02:15;;;;;;;4.55;3.72;;;24.10;89.50;;;;;;4955571;28;20031;-83
2021/05/27 10:05:05;;;;;;;4.63;3.42;;;24.10;89.00;;;;;;4938760;29;20031;-84
2021/05/27 10:07:38;;;;;;;;;;;24.00;89.10;;;;;;4938306;29;20038;-79
2021/05/27 10:10:09;;;;;;;5.15;3.92;;;23.80;88.40;;;;;;4937971;29;19971;-88
2021/05/27 10:12:45;;;;;;;3.90;3.60;;;23.80;89.30;;;;;;4937851;29;20031;-76
2021/05/27 10:15:17;;;;;;;4.20;3.80;;;23.80;89.40;;;;;;4938349;29;20066;-82
2021/05/27 10:17:47;;;;;;;4.07;3.65;;;23.90;89.40;;;;;;4938207;29;20031;-77
2021/05/27 10:20:15;;;;;;;4.78;3.55;;;24.10;88.70;;;;;;4938121;29;20373;-76
2021/05/27 10:22:43;;;;;;;4.38;3.63;;;24.20;87.80;;;;;;4955575;29;20035;-84
2021/05/27 10:25:14;;;;;;;4.70;4.18;;;24.20;87.50;;;;;;4954994;28;20489;-75
2021/05/27 10:27:51;;;;;;;4.32;3.92;;;24.30;87.00;;;;;;4953763;29;20043;-76
2021/05/27 10:30:18;;;;;;;3.88;3.38;;;24.40;86.70;;;;;;4954183;29;20034;-79
2021/05/27 10:32:53;;;;;;;6.22;3.78;;;24.50;86.70;;;;;;4953846;29;20077;-84
2021/05/27 10:35:20;;;;;;;4.65;3.70;;;24.60;87.10;;;;;;4955363;29;20445;-80
2021/05/27 10:37:48;;;;;;;7.10;3.83;;;24.80;86.60;;;;;;4953767;29;20042;-79
2021/05/27 10:40:23;;;;;;;7.80;3.65;;;25.00;86.50;;;;;;4937779;29;20117;-81
2021/05/27 10:43:05;;;;;;;3.90;3.50;;;25.00;85.50;;;;;;4955170;29;20027;-83
2021/05/27 10:45:33;;;;;;;3.67;3.38;;;25.10;85.40;;;;;;4955178;29;20025;-82
2021/05/27 10:48:14;;;;;;;4.47;3.35;;;25.10;85.70;;;;;;4954034;29;20043;-77
2021/05/27 10:50:54;;;;;;;5.10;3.40;;;25.10;86.10;;;;;;4955223;29;20019;-79
2021/05/27 10:53:59;;;;;;;15.45;13.98;;;25.10;85.30;;;;;;4954730;28;20030;-81
2021/05/27 10:56:37;;;;;;;9.77;8.57;;;25.10;85.40;;;;;;4930257;29;20171;-79
2021/05/27 10:59:14;;;;;;;6.18;4.45;;;25.20;84.60;;;;;;4954815;28;20470;-83
2021/05/27 11:01:41;;;;;;;3.53;3.22;;;25.20;84.30;;;;;;4937995;29;20067;-83
2021/05/27 11:04:28;;;;;;;3.30;3.00;;;25.20;84.40;;;;;;4955031;29;20031;-85
2021/05/27 11:07:14;;;;;;;3.42;3.13;;;25.30;83.80;;;;;;4954988;29;20038;-74
2021/05/27 11:09:40;;;;;;;3.30;3.03;;;25.50;83.40;;;;;;4955030;29;20072;-81
2021/05/27 11:12:21;;;;;;;3.35;3.05;;;25.50;83.00;;;;;;4937882;29;20117;-74
2021/05/27 11:14:52;;;;;;;3.90;3.13;;;25.60;82.10;;;;;;4954660;29;20048;-85
2021/05/27 11:17:28;;;;;;;3.33;3.03;;;25.50;81.10;;;;;;4954764;29;20055;-73
2021/05/27 11:20:01;;;;;;;3.30;3.10;;;25.40;81.20;;;;;;4937932;29;20033;-83
2021/05/27 11:25:14;;;;;;;3.70;3.28;;;25.10;81.60;;;;;;4955364;29;20031;-81
2021/05/27 11:27:42;;;;;;;3.85;3.08;;;24.90;82.40;;;;;;4938193;29;20038;-81
2021/05/27 11:30:13;;;;;;;3.40;3.10;;;24.80;83.00;;;;;;4954351;28;20063;-79
2021/05/27 11:32:41;;;;;;;4.28;3.10;;;24.60;83.00;;;;;;4958166;29;20361;-86
2021/05/27 11:35:20;;;;;;;3.50;3.20;;;24.50;83.70;;;;;;4957965;29;20366;-87
2021/05/27 11:37:52;;;;;;;4.38;3.13;;;24.40;83.90;;;;;;4958429;29;20392;-90
2021/05/27 11:40:42;;;;;;;4.35;3.55;;;24.20;84.20;;;;;;4958006;29;20027;-90
2021/05/27 11:43:08;;;;;;;3.70;3.40;;;24.00;85.30;;;;;;4958751;29;20035;-92
2021/05/27 11:45:50;;;;;;;5.45;3.70;;;23.90;86.60;;;;;;4959529;29;20038;-90
2021/05/27 11:49:01;;;;;;;4.80;3.70;;;23.70;87.60;;;;;;4958675;29;20498;-83
2021/05/27 11:51:24;;;;;;;5.90;4.10;;;23.60;89.40;;;;;;4956815;29;20050;-92
2021/05/27 11:53:57;;;;;;;;;;;23.50;90.20;;;;;;4957523;28;20042;-88
2021/05/27 11:56:53;;;;;;;7.40;3.78;;;23.40;90.40;;;;;;4959248;29;19911;-96
2021/05/27 11:59:25;;;;;;;4.32;4.03;;;23.40;91.00;;;;;;4953432;29;20495;-90
2021/05/27 12:01:58;;;;;;;4.85;4.28;;;23.30;91.30;;;;;;4958161;29;20033;-91
2021/05/27 12:04:37;;;;;;;4.93;4.43;;;23.30;91.40;;;;;;4957326;29;20067;-78
2021/05/27 12:07:13;;;;;;;7.60;5.30;;;23.40;91.40;;;;;;4941034;29;20367;-77
2021/05/27 12:09:43;;;;;;;8.23;6.85;;;23.40;91.50;;;;;;4957111;29;20122;-78
2021/05/27 12:12:29;;;;;;;11.23;7.68;;;23.30;92.00;;;;;;4958573;29;20024;-80
2021/05/27 12:15:00;;;;;;;7.38;6.68;;;23.20;92.80;;;;;;4958271;29;20047;-81
2021/05/27 12:17:35;;;;;;;6.45;5.80;;;23.00;93.30;;;;;;4958324;29;20023;-79
2021/05/27 12:20:08;;;;;;;12.13;6.85;;;22.80;93.80;;;;;;4958217;29;20047;-80
2021/05/27 12:23:03;;;;;;;6.70;6.10;;;22.70;94.30;;;;;;4956305;29;20478;-80
2021/05/27 12:25:41;;;;;;;7.47;6.72;;;22.60;94.20;;;;;;4942179;29;20090;-80
2021/05/27 12:28:27;;;;;;;8.35;7.63;;;22.50;94.60;;;;;;4957912;29;20028;-81
2021/05/27 12:30:59;;;;;;;9.50;8.50;;;22.50;95.50;;;;;;4958222;29;20412;-81
2021/05/27 12:33:57;;;;;;;8.10;7.30;;;22.80;96.50;;;;;;4957777;29;20039;-81
2021/05/27 12:36:54;;;;;;;13.70;7.47;;;23.50;96.30;;;;;;4957554;29;20027;-81
2021/05/27 12:39:31;;;;;;;9.60;6.55;;;24.00;95.30;;;;;;4958203;29;20031;-81
2021/05/27 12:42:00;;;;;;;7.07;5.40;;;24.10;94.70;;;;;;4957674;28;20029;-81
2021/05/27 12:44:51;;;;;;;7.43;5.93;;;24.10;94.00;;;;;;4957968;29;20030;-81
2021/05/27 12:47:32;;;;;;;;;;;;;;;;;;;;;
2021/05/27 12:49:59;;;;;;;7.88;6.43;;;24.00;94.20;;;;;;4953693;29;20050;-81
2021/05/27 12:52:51;;;;;;;6.68;6.00;;;23.90;94.30;;;;;;4957642;29;20106;-80
2021/05/27 12:55:17;;;;;;;6.47;5.88;;;23.80;94.20;;;;;;4956252;29;20473;-80
2021/05/27 12:58:26;;;;;;;5.57;5.07;;;23.80;94.50;;;;;;4940150;29;20034;-80
2021/05/27 13:00:51;;;;;;;6.40;5.87;;;23.70;94.40;;;;;;4952759;29;20118;-80
2021/05/27 13:03:17;;;;;;;7.57;6.63;;;23.50;94.70;;;;;;4943768;28;20114;-81
2021/05/27 13:05:43;;;;;;;7.32;6.60;;;23.40;94.50;;;;;;4938135;29;20046;-80
2021/05/27 13:08:09;;;;;;;12.25;8.10;;;23.30;94.60;;;;;;4936907;29;20034;-83
2021/05/27 13:11:07;;;;;;;8.48;7.68;;;23.20;94.50;;;;;;4938433;29;20091;-82
2021/05/27 13:13:41;;;;;;;6.95;6.35;;;23.10;94.70;;;;;;4925099;29;20054;-81
2021/05/27 13:16:29;;;;;;;8.10;7.30;;;22.90;94.80;;;;;;4921859;29;20027;-81
2021/05/27 13:18:55;;;;;;;7.80;7.00;;;22.90;95.20;;;;;;4936599;29;20035;-81
2021/05/27 13:21:21;;;;;;;8.25;6.85;;;22.90;95.30;;;;;;4938020;29;20107;-80
2021/05/27 13:23:47;;;;;;;7.68;6.90;;;23.00;95.40;;;;;;4910778;29;20028;-80
2021/05/27 13:26:17;;;;;;;7.55;6.70;;;23.00;95.30;;;;;;4938120;29;20083;-80
2021/05/27 13:28:44;;;;;;;7.47;6.68;;;23.10;95.30;;;;;;4937946;29;20020;-81